Pula, Chorvatsko

20:55 CEST 27. Srpen 2014 (GMT +0200)
Astronomical observatory Pula | Change Station
CLOSE
Current Station
Osobní povětrnostní stanice
Location: Pula - Istra, CROATIA
Nadmořská výška: 92 ft
Poblíž povětrnostní stanice

Výška 92 ft 44.87 °N, 13.85 °E | Updated 55 seconds ago

Clear
Jasno
72.7 °F
Pocit jako 71 °F
S
1.6
Vítr proměnlivý Vítr od VJV
Gusts 3.8 mil/h

Dnes
Vysoké -- | Nízké -- °F
--% Možnost srážek
Včera
Vysoké -- | Nízké -- °F
Precip. -- inčů
6:20 AM 7:50 PM
Dorůstající srpek, 4% visible
Tlak 29.86 inčů
Viditelnost -9999.0 mílí
Zataženo
Tepelný index 71 °F
Rosný bod 69 °F
Vlhkost 89%
Dešťové srážky 0.04 inčů
Sněhová pokrývka Není k dispozici
UV záření Není k dispozici
Pyl Není k dispozici
Kvalita ovzduší Není k dispozici
Flu Activity Není k dispozici
METAR LDPL 271830Z 09004KT CAVOK 20/19 Q1011 BECMG 07008KT

More Conditions Fewer Conditions

Tlak 29.86 inčů
Viditelnost -9999.0 mílí
Zataženo
Tepelný index 71 °F
Rosný bod 69 °F
Vlhkost 89%
Dešťové srážky 0.04 inčů
Sněhová pokrývka Není k dispozici
UV záření Není k dispozici
Pyl Není k dispozici
Kvalita ovzduší Není k dispozici
Flu Activity Není k dispozici
METAR LDPL 271830Z 09004KT CAVOK 20/19 Q1011 BECMG 07008KT

More Conditions Fewer Conditions

10-Day Weather Forecast

Almanac

Astronomie

Aug. 27, 2014 Východ Západ
Skutečný čas 06:20 CEST 19:50 CEST
Občanský soumrak 05:49 CEST 20:21 CEST
Námořní soumrak 05:12 CEST 20:58 CEST
Astronomický soumrak 04:32 CEST 21:37 CEST
Měsíc 08:06 CEST 20:26 CEST
Délka denního světla 14h 31m
Délka dne
13h 30m
Tomorrow will be 2m 57s shorter.
Dorůstající srpek, 4% of the Moon is Illuminated
Dnes
Dorůstající srpek
Zář 2
První čtvrť
Zář 8
Úplněk
Zář 15
Ubývající
Zář 24
Nov

Dnešní extrémy

Nejvyšší hodnoty ve státě Nejnižší hodnoty ve státě

Community

WunderPhotos

Upload Photos

1,747,752 snímků staženo!

Nearby

Výška sněhu

Not available.

Seizmická činnost

Město Distance Mag. Čas & datum
Žádné zemětřesení v okolí nebylo hlášeno
Minimální zobrazený rozsah je 2.5.

Pobřežní teplota vody

Lokalita Teplota
Stanice nic nehlásí

Poblíž povětrnostní stanice